createdAt,value
2023-01-18T00:00:37.694Z,98026.63
2023-01-18T00:03:05.698Z,98018.81
2023-01-18T00:05:33.616Z,98016.16
2023-01-18T00:08:00.834Z,98017.91
2023-01-18T00:10:27.934Z,98017.91
2023-01-18T00:12:55.547Z,98016.78
2023-01-18T00:15:22.800Z,98025.22
2023-01-18T00:17:52.708Z,98018.75
2023-01-18T00:20:22.378Z,98024.09
2023-01-18T00:22:56.102Z,98017.13
2023-01-18T00:25:24.317Z,98010.06
2023-01-18T00:27:53.311Z,98014.66
2023-01-18T00:30:22.688Z,98008.03
2023-01-18T00:32:52.571Z,98003.69
2023-01-18T00:35:22.221Z,98014.00
2023-01-18T00:37:50.230Z,98014.16
2023-01-18T00:40:17.821Z,98020.97
2023-01-18T00:43:03.611Z,98024.28
2023-01-18T00:45:30.860Z,98022.59
2023-01-18T00:47:58.339Z,98030.22
2023-01-18T00:50:25.488Z,98036.22
2023-01-18T00:52:56.934Z,98041.53
2023-01-18T00:55:24.543Z,98043.34
2023-01-18T00:57:51.773Z,98041.19
2023-01-18T01:00:19.033Z,98046.50
2023-01-18T01:02:46.496Z,98052.63
2023-01-18T01:05:40.214Z,98051.97
2023-01-18T01:08:07.434Z,98051.97
2023-01-18T01:10:34.953Z,98057.28
2023-01-18T01:13:20.821Z,98052.31
2023-01-18T01:16:06.686Z,98055.66
2023-01-18T01:18:52.536Z,98062.59
2023-01-18T01:21:38.864Z,98060.94
2023-01-18T01:24:24.960Z,98071.06
2023-01-18T01:26:54.817Z,98070.72
2023-01-18T01:29:22.301Z,98071.63
2023-01-18T01:31:49.533Z,98068.25
2023-01-18T01:34:16.606Z,98076.34
2023-01-18T01:36:43.854Z,98079.16
2023-01-18T01:39:11.058Z,98077.81
2023-01-18T01:41:38.344Z,98071.94
2023-01-18T01:44:17.478Z,98076.44
2023-01-18T01:46:47.737Z,98079.00
2023-01-18T01:49:23.996Z,98076.34
2023-01-18T01:51:56.892Z,98083.13
2023-01-18T01:54:26.937Z,98097.75
2023-01-18T01:56:57.012Z,98099.91
2023-01-18T01:59:24.396Z,98098.22
2023-01-18T02:01:51.718Z,98099.78
2023-01-18T02:04:19.628Z,98105.00
2023-01-18T02:06:46.606Z,98106.34
2023-01-18T02:09:15.656Z,98106.34
2023-01-18T02:11:43.327Z,98097.56
2023-01-18T02:14:13.020Z,98097.06
2023-01-18T02:17:08.777Z,98101.56
2023-01-18T02:19:35.869Z,98104.41
2023-01-18T02:22:02.839Z,98095.66
2023-01-18T02:24:29.942Z,98098.81
2023-01-18T02:27:11.500Z,98094.59
2023-01-18T02:29:50.874Z,98083.16
2023-01-18T02:32:17.997Z,98069.22
2023-01-18T02:34:44.941Z,98076.34
2023-01-18T02:37:12.024Z,98076.72
2023-01-18T02:39:41.920Z,98089.38
2023-01-18T02:42:36.328Z,98083.69
2023-01-18T02:45:35.002Z,98078.88
2023-01-18T02:48:03.815Z,98078.19
2023-01-18T02:50:30.900Z,98093.63
2023-01-18T02:52:58.312Z,98093.63
2023-01-18T02:55:44.083Z,98101.50
2023-01-18T02:58:15.725Z,98105.41
2023-01-18T03:00:46.174Z,98103.06
2023-01-18T03:03:14.929Z,98108.88
2023-01-18T03:05:43.514Z,98102.41
2023-01-18T03:08:14.605Z,98115.00
2023-01-18T03:10:49.953Z,98112.28
2023-01-18T03:13:23.356Z,98130.59
2023-01-18T03:15:50.439Z,98134.06
2023-01-18T03:18:26.684Z,98135.75
2023-01-18T03:20:55.779Z,98142.53
2023-01-18T03:23:39.835Z,98144.53
2023-01-18T03:26:11.893Z,98140.38
2023-01-18T03:29:00.202Z,98161.50
2023-01-18T03:31:46.029Z,98161.41
2023-01-18T03:34:18.202Z,98169.22
2023-01-18T03:36:48.771Z,98173.28
2023-01-18T03:39:19.304Z,98171.06
2023-01-18T03:41:48.924Z,98171.88
2023-01-18T03:44:22.561Z,98170.91
2023-01-18T03:46:50.032Z,98166.56
2023-01-18T03:49:18.146Z,98169.16
2023-01-18T03:51:51.794Z,98171.72
2023-01-18T03:54:21.944Z,98171.53
2023-01-18T03:56:52.210Z,98177.03
2023-01-18T03:59:19.235Z,98183.16
2023-01-18T04:01:48.187Z,98187.13
2023-01-18T04:04:15.253Z,98178.66
2023-01-18T04:06:42.513Z,98183.97
2023-01-18T04:09:11.855Z,98182.16
2023-01-18T04:11:38.981Z,98190.09
2023-01-18T04:14:06.303Z,98190.44
2023-01-18T04:16:33.741Z,98185.97
2023-01-18T04:19:00.757Z,98189.78
2023-01-18T04:21:27.745Z,98181.09
2023-01-18T04:23:54.947Z,98182.25
2023-01-18T04:26:22.004Z,98189.97
2023-01-18T04:28:49.163Z,98189.22
2023-01-18T04:31:16.187Z,98190.22
2023-01-18T04:33:43.285Z,98194.19
2023-01-18T04:36:10.304Z,98192.38
2023-01-18T04:38:37.459Z,98187.22
2023-01-18T04:41:05.271Z,98190.72
2023-01-18T04:43:32.438Z,98203.28
2023-01-18T04:45:59.556Z,98204.94
2023-01-18T04:48:26.778Z,98196.94
2023-01-18T04:50:53.995Z,98195.09
2023-01-18T04:53:21.590Z,98200.66
2023-01-18T04:55:51.023Z,98201.00
2023-01-18T04:58:18.093Z,98205.97
2023-01-18T05:00:45.203Z,98213.63
2023-01-18T05:03:12.388Z,98219.75
2023-01-18T05:05:40.017Z,98217.94
2023-01-18T05:08:07.065Z,98240.31
2023-01-18T05:10:34.127Z,98230.53
2023-01-18T05:13:01.718Z,98247.75
2023-01-18T05:15:28.913Z,98243.38
2023-01-18T05:17:56.027Z,98239.41
2023-01-18T05:20:23.061Z,98242.94
2023-01-18T05:22:50.141Z,98242.31
2023-01-18T05:25:17.238Z,98252.09
2023-01-18T05:27:44.400Z,98254.56
2023-01-18T05:30:11.545Z,98255.88
2023-01-18T05:32:38.952Z,98255.88
2023-01-18T05:35:06.167Z,98268.63
2023-01-18T05:37:33.285Z,98270.25
2023-01-18T05:40:00.366Z,98256.16
2023-01-18T05:42:27.367Z,98263.50
2023-01-18T05:44:54.623Z,98260.19
2023-01-18T05:47:21.763Z,98258.34
2023-01-18T05:49:49.515Z,98263.50
2023-01-18T05:52:17.044Z,98276.00
2023-01-18T05:54:45.184Z,98278.66
2023-01-18T05:57:12.228Z,98282.38
2023-01-18T05:59:39.467Z,98300.50
2023-01-18T06:02:06.613Z,98306.56
2023-01-18T06:04:33.827Z,98324.94
2023-01-18T06:07:00.845Z,98336.00
2023-01-18T06:09:29.990Z,98339.19
2023-01-18T06:11:57.291Z,98339.19
2023-01-18T06:14:24.856Z,98353.72
2023-01-18T06:16:51.914Z,98344.66
2023-01-18T06:19:19.128Z,98346.28
2023-01-18T06:21:47.578Z,98345.31
2023-01-18T06:24:14.666Z,98341.16
2023-01-18T06:26:41.680Z,98346.28
2023-01-18T06:29:08.884Z,98350.66
2023-01-18T06:31:36.042Z,98352.72
2023-01-18T06:34:09.148Z,98362.31
2023-01-18T06:36:36.948Z,98362.09
2023-01-18T06:39:04.049Z,98365.63
2023-01-18T06:41:31.678Z,98376.06
2023-01-18T06:43:58.685Z,98377.09
2023-01-18T06:46:26.371Z,98385.59
2023-01-18T06:48:53.369Z,98377.09
2023-01-18T06:51:22.017Z,98385.28
2023-01-18T06:53:50.086Z,98385.13
2023-01-18T06:56:18.022Z,98381.34
2023-01-18T06:58:45.191Z,98378.47
2023-01-18T07:01:12.294Z,98380.28
2023-01-18T07:03:39.321Z,98384.53
2023-01-18T07:06:07.555Z,98388.00
2023-01-18T07:08:35.563Z,98397.22
2023-01-18T07:11:07.448Z,98402.50
2023-01-18T07:13:34.789Z,98416.09
2023-01-18T07:16:04.754Z,98420.56
2023-01-18T07:18:32.111Z,98416.09
2023-01-18T07:21:00.254Z,98428.34
2023-01-18T07:23:28.271Z,98424.44
2023-01-18T07:26:00.892Z,98420.19
2023-01-18T07:28:28.198Z,98423.06
2023-01-18T07:30:55.387Z,98412.47
2023-01-18T07:33:22.486Z,98415.81
2023-01-18T07:35:51.738Z,98420.19
2023-01-18T07:38:19.805Z,98428.34
2023-01-18T07:40:47.383Z,98431.34
2023-01-18T07:43:15.805Z,98427.75
2023-01-18T07:45:43.125Z,98436.06
2023-01-18T07:48:10.598Z,98431.81
2023-01-18T07:50:38.001Z,98427.81
2023-01-18T07:53:10.421Z,98433.91
2023-01-18T07:55:40.617Z,98423.63
2023-01-18T07:58:09.341Z,98431.22
2023-01-18T08:00:37.154Z,98432.63
2023-01-18T08:03:04.841Z,98426.69
2023-01-18T08:05:33.991Z,98440.63
2023-01-18T08:08:01.083Z,98440.06
2023-01-18T08:10:28.417Z,98439.91
2023-01-18T08:12:55.591Z,98455.63
2023-01-18T08:15:22.949Z,98459.97
2023-01-18T08:17:51.230Z,98465.31
2023-01-18T08:20:18.462Z,98475.53
2023-01-18T08:22:49.042Z,98471.28
2023-01-18T08:25:17.405Z,98477.25
2023-01-18T08:27:44.483Z,98471.28
2023-01-18T08:30:11.668Z,98470.47
2023-01-18T08:32:39.256Z,98469.34
2023-01-18T08:35:07.181Z,98488.91
2023-01-18T08:37:34.409Z,98483.63
2023-01-18T08:40:01.474Z,98496.53
2023-01-18T08:42:29.257Z,98506.75
2023-01-18T08:44:56.984Z,98504.72
2023-01-18T08:47:24.747Z,98518.16
2023-01-18T08:49:52.013Z,98527.69
2023-01-18T08:52:19.157Z,98529.06
2023-01-18T08:54:46.364Z,98522.75
2023-01-18T08:57:13.579Z,98523.63
2023-01-18T08:59:40.743Z,98537.00
2023-01-18T09:02:09.961Z,98547.28
2023-01-18T09:04:37.669Z,98549.66
2023-01-18T09:07:06.025Z,98563.56
2023-01-18T09:09:34.938Z,98573.75
2023-01-18T09:12:02.005Z,98576.88
2023-01-18T09:14:29.255Z,98585.91
2023-01-18T09:16:56.453Z,98577.66
2023-01-18T09:19:23.612Z,98584.59
2023-01-18T09:21:51.383Z,98595.06
2023-01-18T09:24:18.569Z,98616.72
2023-01-18T09:26:47.253Z,98611.22
2023-01-18T09:29:14.812Z,98617.31
2023-01-18T09:31:45.179Z,98628.38
2023-01-18T09:34:19.691Z,98628.72
2023-01-18T09:36:53.948Z,98636.84
2023-01-18T09:39:22.815Z,98640.03
2023-01-18T09:41:54.657Z,98648.66
2023-01-18T09:44:35.694Z,98657.84
2023-01-18T09:47:06.841Z,98658.38
2023-01-18T09:49:43.628Z,98661.94
2023-01-18T09:52:20.586Z,98677.72
2023-01-18T09:55:04.557Z,98670.75
2023-01-18T09:57:47.077Z,98679.66
2023-01-18T10:00:17.132Z,98678.25
2023-01-18T10:02:46.893Z,98687.56
2023-01-18T10:05:22.169Z,98698.28
2023-01-18T10:08:02.401Z,98691.88
2023-01-18T10:10:36.261Z,98706.88
2023-01-18T10:13:25.588Z,98708.56
2023-01-18T10:15:52.962Z,98719.50
2023-01-18T10:18:20.114Z,98724.78
2023-01-18T10:21:02.190Z,98721.88
2023-01-18T10:23:29.254Z,98739.13
2023-01-18T10:26:03.108Z,98735.50
2023-01-18T10:28:39.612Z,98742.53
2023-01-18T10:31:06.933Z,98741.72
2023-01-18T10:33:36.227Z,98744.47
2023-01-18T10:36:06.724Z,98752.66
2023-01-18T10:38:35.086Z,98746.88
2023-01-18T10:41:02.821Z,98746.88
2023-01-18T10:43:31.778Z,98750.09
2023-01-18T10:45:58.974Z,98740.09
2023-01-18T10:48:26.286Z,98743.56
2023-01-18T10:51:01.236Z,98739.31
2023-01-18T10:53:33.131Z,98736.59
2023-01-18T10:56:14.544Z,98729.22
2023-01-18T10:58:50.962Z,98729.66
2023-01-18T11:01:22.526Z,98724.09
2023-01-18T11:03:51.724Z,98724.66
2023-01-18T11:06:20.675Z,98722.22
2023-01-18T11:08:50.090Z,98719.50
2023-01-18T11:11:46.681Z,98715.09
2023-01-18T11:14:23.820Z,98719.28
2023-01-18T11:16:58.115Z,98709.78
2023-01-18T11:19:26.097Z,98719.22
2023-01-18T11:21:53.789Z,98703.88
2023-01-18T11:24:28.748Z,98708.09
2023-01-18T11:27:04.528Z,98691.84
2023-01-18T11:29:35.647Z,98689.28
2023-01-18T11:32:07.188Z,98694.63
2023-01-18T11:34:36.052Z,98688.84
2023-01-18T11:37:04.086Z,98691.28
2023-01-18T11:39:37.439Z,98690.09
2023-01-18T11:42:10.364Z,98693.03
2023-01-18T11:44:40.325Z,98693.09
2023-01-18T11:47:12.453Z,98683.25
2023-01-18T11:49:44.971Z,98689.16
2023-01-18T11:52:21.389Z,98684.81
2023-01-18T11:54:53.339Z,98680.81
2023-01-18T11:57:20.699Z,98677.09
2023-01-18T11:59:49.158Z,98682.75
2023-01-18T12:02:25.641Z,98690.91
2023-01-18T12:04:52.758Z,98687.59
2023-01-18T12:07:26.127Z,98687.44
2023-01-18T12:09:57.372Z,98689.59
2023-01-18T12:12:27.547Z,98682.28
2023-01-18T12:14:54.679Z,98689.47
2023-01-18T12:17:46.221Z,98679.88
2023-01-18T12:20:36.403Z,98685.81
2023-01-18T12:23:11.901Z,98688.94
2023-01-18T12:26:11.353Z,98682.78
2023-01-18T12:28:39.529Z,98695.09
2023-01-18T12:31:25.523Z,98701.56
2023-01-18T12:34:00.464Z,98705.06
2023-01-18T12:36:35.245Z,98718.88
2023-01-18T12:39:08.510Z,98717.38
2023-01-18T12:42:08.375Z,98716.88
2023-01-18T12:44:54.093Z,98720.63
2023-01-18T12:47:34.799Z,98729.50
2023-01-18T12:50:08.658Z,98733.91
2023-01-18T12:52:42.585Z,98744.84
2023-01-18T12:55:21.368Z,98746.97
2023-01-18T12:57:54.952Z,98753.94
2023-01-18T13:00:43.762Z,98757.00
2023-01-18T13:03:13.623Z,98750.78
2023-01-18T13:05:52.393Z,98754.72
2023-01-18T13:08:28.350Z,98749.56
2023-01-18T13:10:59.323Z,98757.44
2023-01-18T13:13:28.766Z,98756.88
2023-01-18T13:16:02.078Z,98765.81
2023-01-18T13:18:52.619Z,98766.09
2023-01-18T13:21:28.064Z,98766.84
2023-01-18T13:24:11.297Z,98765.34
2023-01-18T13:26:38.600Z,98769.00
2023-01-18T13:29:08.073Z,98762.09
2023-01-18T13:31:35.316Z,98757.50
2023-01-18T13:34:04.018Z,98751.56
2023-01-18T13:36:44.847Z,98752.41
2023-01-18T13:39:16.672Z,98750.66
2023-01-18T13:42:13.313Z,98757.00
2023-01-18T13:44:43.634Z,98759.00
2023-01-18T13:47:31.986Z,98748.69
2023-01-18T13:49:59.219Z,98747.50
2023-01-18T13:52:30.654Z,98749.13
2023-01-18T13:55:01.788Z,98749.28
2023-01-18T13:57:33.949Z,98753.84
2023-01-18T14:00:03.550Z,98749.50
2023-01-18T14:02:42.424Z,98763.81
2023-01-18T14:05:19.881Z,98754.41
2023-01-18T14:07:50.375Z,98755.19
2023-01-18T14:10:25.408Z,98764.72
2023-01-18T14:12:56.200Z,98766.47
2023-01-18T14:15:25.882Z,98759.66
2023-01-18T14:17:58.587Z,98763.81
2023-01-18T14:20:29.152Z,98758.88
2023-01-18T14:23:25.797Z,98763.06
2023-01-18T14:25:58.749Z,98757.44
2023-01-18T14:28:31.690Z,98760.19
2023-01-18T14:31:01.105Z,98760.91
2023-01-18T14:33:40.515Z,98761.50
2023-01-18T14:36:20.594Z,98763.75
2023-01-18T14:38:47.886Z,98762.88
2023-01-18T14:41:17.161Z,98764.88
2023-01-18T14:43:46.178Z,98761.53
2023-01-18T14:46:16.151Z,98762.88
2023-01-18T14:48:52.026Z,98765.53
2023-01-18T14:51:22.938Z,98757.91
2023-01-18T14:58:02.622Z,98764.03
2023-01-18T15:00:30.048Z,98763.22
2023-01-18T15:02:57.728Z,98764.03
2023-01-18T15:05:28.053Z,98766.69
2023-01-18T15:07:56.285Z,98762.44
2023-01-18T15:10:26.158Z,98763.81
2023-01-18T15:12:56.782Z,98767.63
2023-01-18T15:15:30.487Z,98761.41
2023-01-18T15:18:04.367Z,98762.31
2023-01-18T15:20:39.411Z,98763.06
2023-01-18T15:23:06.851Z,98773.38
2023-01-18T15:25:34.131Z,98772.41
2023-01-18T15:28:22.399Z,98775.19
2023-01-18T15:30:52.860Z,98780.50
2023-01-18T15:33:21.352Z,98786.88
2023-01-18T15:35:57.519Z,98792.91
2023-01-18T15:38:24.852Z,98789.28
2023-01-18T15:40:58.350Z,98792.03
2023-01-18T15:43:35.093Z,98794.91
2023-01-18T15:46:08.214Z,98805.06
2023-01-18T15:48:38.066Z,98808.69
2023-01-18T15:51:08.995Z,98806.25
2023-01-18T15:53:46.006Z,98815.50
2023-01-18T15:56:18.869Z,98820.88
2023-01-18T15:58:47.785Z,98828.75
2023-01-18T16:01:16.364Z,98816.41
2023-01-18T16:03:49.919Z,98816.09
2023-01-18T16:06:50.008Z,98815.59
2023-01-18T16:09:18.641Z,98827.69
2023-01-18T16:11:55.363Z,98828.31
2023-01-18T16:14:28.811Z,98833.81
2023-01-18T16:16:57.271Z,98831.38
2023-01-18T16:19:36.360Z,98828.97
2023-01-18T16:22:16.852Z,98834.53
2023-01-18T16:24:47.238Z,98828.81
2023-01-18T16:27:18.930Z,98832.97
2023-01-18T16:29:47.415Z,98841.38
2023-01-18T16:32:17.202Z,98836.84
2023-01-18T16:34:44.400Z,98833.31
2023-01-18T16:37:11.737Z,98840.31
2023-01-18T16:39:40.202Z,98841.63
2023-01-18T16:42:09.270Z,98833.06
2023-01-18T16:44:37.135Z,98835.78
2023-01-18T16:47:04.525Z,98824.78
2023-01-18T16:49:31.667Z,98827.44
2023-01-18T16:51:59.182Z,98816.41
2023-01-18T16:54:26.239Z,98817.28
2023-01-18T16:56:53.378Z,98812.31
2023-01-18T16:59:23.958Z,98811.09
2023-01-18T17:01:54.041Z,98809.19
2023-01-18T17:04:21.511Z,98810.63
2023-01-18T17:06:48.819Z,98807.31
2023-01-18T17:09:23.221Z,98815.94
2023-01-18T17:11:50.722Z,98826.16
2023-01-18T17:14:18.314Z,98823.56
2023-01-18T17:16:46.615Z,98836.53
2023-01-18T17:19:15.186Z,98832.91
2023-01-18T17:21:42.854Z,98834.41
2023-01-18T17:24:10.704Z,98833.41
2023-01-18T17:26:39.051Z,98841.09
2023-01-18T17:29:06.804Z,98845.47
2023-01-18T17:31:41.641Z,98858.28
2023-01-18T17:34:16.926Z,98849.88
2023-01-18T17:36:45.626Z,98861.97
2023-01-18T17:39:14.765Z,98861.06
2023-01-18T17:41:42.419Z,98870.59
2023-01-18T17:44:10.161Z,98875.88
2023-01-18T17:46:37.428Z,98886.97
2023-01-18T17:49:04.640Z,98887.88
2023-01-18T17:51:32.727Z,98892.13
2023-01-18T17:54:02.132Z,98889.53
2023-01-18T17:56:30.832Z,98895.50
2023-01-18T17:58:58.038Z,98905.97
2023-01-18T18:01:25.429Z,98909.22
2023-01-18T18:03:52.699Z,98913.47
2023-01-18T18:06:30.204Z,98918.75
2023-01-18T18:08:59.005Z,98917.06
2023-01-18T18:11:26.166Z,98918.06
2023-01-18T18:13:54.232Z,98921.56
2023-01-18T18:16:23.895Z,98923.97
2023-01-18T18:18:51.306Z,98929.19
2023-01-18T18:21:18.906Z,98930.25
2023-01-18T18:23:46.459Z,98929.19
2023-01-18T18:26:13.720Z,98934.22
2023-01-18T18:28:41.870Z,98938.53
2023-01-18T18:31:13.847Z,98944.66
2023-01-18T18:33:41.191Z,98943.88
2023-01-18T18:36:13.621Z,98952.50
2023-01-18T18:38:40.824Z,98955.84
2023-01-18T18:41:08.915Z,98956.41
2023-01-18T18:43:36.253Z,98966.78
2023-01-18T18:46:04.219Z,98967.38
2023-01-18T18:48:31.351Z,98973.72
2023-01-18T18:50:58.561Z,98969.69
2023-01-18T18:53:37.028Z,98978.03
2023-01-18T18:56:06.975Z,98981.59
2023-01-18T18:58:34.126Z,98985.47
2023-01-18T19:01:05.058Z,98988.34
2023-01-18T19:03:32.765Z,98988.44
2023-01-18T19:06:00.154Z,98993.06
2023-01-18T19:08:27.481Z,99006.00
2023-01-18T19:10:56.098Z,99006.88
2023-01-18T19:13:26.304Z,99010.34
2023-01-18T19:15:54.499Z,99003.63
2023-01-18T19:18:22.496Z,99008.66
2023-01-18T19:20:50.842Z,99014.84
2023-01-18T19:23:18.368Z,99010.56
2023-01-18T19:25:47.098Z,99012.31
2023-01-18T19:28:16.035Z,99020.88
2023-01-18T19:30:43.694Z,99017.41
2023-01-18T19:33:11.727Z,99027.84
2023-01-18T19:35:40.917Z,99033.00
2023-01-18T19:38:08.545Z,99029.53
2023-01-18T19:40:36.427Z,99031.88
2023-01-18T19:43:03.896Z,99030.06
2023-01-18T19:45:31.713Z,99032.84
2023-01-18T19:47:59.961Z,99033.81
2023-01-18T19:50:28.013Z,99036.44
2023-01-18T19:52:55.316Z,99031.16
2023-01-18T19:55:22.789Z,99028.59
2023-01-18T19:57:51.006Z,99034.59
2023-01-18T20:00:18.469Z,99029.38
2023-01-18T20:02:45.818Z,99026.66
2023-01-18T20:05:13.066Z,99031.03
2023-01-18T20:07:40.525Z,99027.44
2023-01-18T20:10:07.835Z,99018.53
2023-01-18T20:12:35.149Z,99026.38
2023-01-18T20:15:02.697Z,99032.31
2023-01-18T20:17:30.528Z,99017.03
2023-01-18T20:19:57.628Z,99021.31
2023-01-18T20:22:25.097Z,99018.41
2023-01-18T20:24:52.330Z,99008.38
2023-01-18T20:27:19.902Z,99010.44
2023-01-18T20:29:47.195Z,99005.44
2023-01-18T20:32:16.981Z,99010.84
2023-01-18T20:34:46.421Z,99007.38
2023-01-18T20:37:14.390Z,99006.09
2023-01-18T20:39:41.448Z,98997.47
2023-01-18T20:42:08.734Z,98992.19
2023-01-18T20:44:36.186Z,99002.75
2023-01-18T20:47:03.451Z,99000.84
2023-01-18T20:49:37.713Z,99006.53
2023-01-18T20:52:06.938Z,99014.09
2023-01-18T20:54:36.008Z,99009.00
2023-01-18T20:57:04.806Z,99013.44
2023-01-18T20:59:32.136Z,99021.47
2023-01-18T21:01:59.636Z,99021.78
2023-01-18T21:04:27.313Z,99030.22
2023-01-18T21:06:57.285Z,99023.63
2023-01-18T21:09:25.594Z,99024.50
2023-01-18T21:11:55.149Z,99020.31
2023-01-18T21:14:22.518Z,99020.38
2023-01-18T21:16:50.002Z,99027.81
2023-01-18T21:19:18.248Z,99025.69
2023-01-18T21:21:45.629Z,99025.31
2023-01-18T21:24:12.969Z,99025.97
2023-01-18T21:26:40.141Z,99026.63
2023-01-18T21:29:07.433Z,99017.00
2023-01-18T21:31:35.102Z,99016.13
2023-01-18T21:34:02.508Z,99016.94
2023-01-18T21:36:29.763Z,99026.41
2023-01-18T21:38:57.087Z,99023.69
2023-01-18T21:41:43.066Z,99029.44
2023-01-18T21:44:29.558Z,99036.06
2023-01-18T21:46:56.629Z,99034.25
2023-01-18T21:50:11.336Z,99040.94
2023-01-18T21:52:48.840Z,99040.81
2023-01-18T21:55:16.830Z,99045.72
2023-01-18T21:57:44.259Z,99040.19
2023-01-18T22:00:11.686Z,99043.66
2023-01-18T22:02:38.920Z,99039.66
2023-01-18T22:05:08.413Z,99040.81
2023-01-18T22:07:35.540Z,99050.88
2023-01-18T22:10:07.168Z,99052.78
2023-01-18T22:12:35.273Z,99059.63
2023-01-18T22:15:04.246Z,99061.25
2023-01-18T22:17:31.402Z,99057.94
2023-01-18T22:19:58.605Z,99057.94
2023-01-18T22:22:25.839Z,99056.63
2023-01-18T22:24:53.227Z,99062.72
2023-01-18T22:27:20.299Z,99061.25
2023-01-18T22:29:47.495Z,99058.66
2023-01-18T22:32:14.468Z,99058.59
2023-01-18T22:34:41.587Z,99056.50
2023-01-18T22:37:08.750Z,99061.16
2023-01-18T22:39:35.896Z,99064.88
2023-01-18T22:42:02.974Z,99068.34
2023-01-18T22:44:30.143Z,99072.25
2023-01-18T22:46:57.203Z,99072.38
2023-01-18T22:49:24.245Z,99070.22
2023-01-18T22:51:51.295Z,99069.50
2023-01-18T22:54:22.496Z,99066.81
2023-01-18T22:56:49.719Z,99065.94
2023-01-18T22:59:16.897Z,99073.78
2023-01-18T23:01:44.137Z,99068.66
2023-01-18T23:04:11.903Z,99071.66
2023-01-18T23:06:42.337Z,99060.66
2023-01-18T23:09:09.870Z,99061.38
2023-01-18T23:11:37.575Z,99057.88
2023-01-18T23:14:23.784Z,99054.97
2023-01-18T23:17:10.072Z,99057.16
2023-01-18T23:19:37.339Z,99070.06
2023-01-18T23:22:07.664Z,99070.13
2023-01-18T23:24:35.608Z,99077.72
2023-01-18T23:27:03.272Z,99072.75
2023-01-18T23:29:30.415Z,99079.59
2023-01-18T23:31:58.473Z,99076.81
2023-01-18T23:34:26.087Z,99069.88
2023-01-18T23:36:53.315Z,99062.97
2023-01-18T23:39:39.307Z,99060.34
2023-01-18T23:42:25.313Z,99061.06
2023-01-18T23:45:11.311Z,99060.81
2023-01-18T23:47:56.926Z,99069.28
2023-01-18T23:50:42.904Z,99067.66
2023-01-18T23:53:29.791Z,99069.91
2023-01-18T23:55:57.654Z,99073.22
2023-01-18T23:58:24.967Z,99068.34
